NZAA/AKL METAR and TAF weather

Enter ICAO airport designator
Station Type Date Time Source
NZAA METAR 2022/05/24 11:00 UTC NOAA

NZAA 241100Z AUTO 24010KT 9999 BKN050/// 15/10 Q1019 NOSIG


Station Type Date Time Source
NZAA Decoded METAR 2022/05/24 11:00 UTC NOAA

Auckland Airport, New Zealand (NZAA) 37-01S 174-48E 6M
May 24, 2022 - 07:00 AM EDT / 2022.05.24 1100 UTC
Wind: from the WSW (240 degrees) at 12 MPH (10 KT):0
Visibility: greater than 7 mile(s):0
Sky conditions: mostly cloudy
Temperature: 59 F (15 C)
Dew Point: 50 F (10 C)
Relative Humidity: 72%
Pressure (altimeter): 30.09 in. Hg (1019 hPa)
ob: NZAA 241100Z AUTO 24010KT 9999 BKN050/// 15/10 Q1019 NOSIG
cycle: 11

Station Type Date Time Source
NZAA TAF 2022/05/24 12:00 UTC NOAA

TAF NZAA 241111Z 2412/2512 23010KT 9999 SCT030

Example: see airport list